createdAt,value
2018-04-21T00:00:24.858Z,1014.62
2018-04-21T00:01:24.848Z,1014.63
2018-04-21T00:02:24.841Z,1014.64
2018-04-21T00:03:24.829Z,1014.65
2018-04-21T00:04:24.816Z,1014.67
2018-04-21T00:05:24.811Z,1014.66
2018-04-21T00:06:24.804Z,1014.66
2018-04-21T00:07:24.788Z,1014.65
2018-04-21T00:08:24.787Z,1014.66
2018-04-21T00:09:24.771Z,1014.64
2018-04-21T00:10:24.760Z,1014.65
2018-04-21T00:11:24.752Z,1014.62
2018-04-21T00:12:24.741Z,1014.67
2018-04-21T00:13:24.732Z,1014.67
2018-04-21T00:14:24.722Z,1014.68
2018-04-21T00:15:24.711Z,1014.67
2018-04-21T00:16:24.852Z,1014.66
2018-04-21T00:17:24.691Z,1014.65
2018-04-21T00:18:24.743Z,1014.66
2018-04-21T00:19:24.665Z,1014.66
2018-04-21T00:20:24.660Z,1014.67
2018-04-21T00:21:24.652Z,1014.63
2018-04-21T00:22:24.657Z,1014.66
2018-04-21T00:23:24.631Z,1014.67
2018-04-21T00:24:24.620Z,1014.64
2018-04-21T00:25:24.612Z,1014.67
2018-04-21T00:26:24.651Z,1014.65
2018-04-21T00:27:24.592Z,1014.66
2018-04-21T00:28:24.578Z,1014.65
2018-04-21T00:29:24.572Z,1014.64
2018-04-21T00:30:24.561Z,1014.61
2018-04-21T00:31:24.552Z,1014.61
2018-04-21T00:32:24.536Z,1014.62
2018-04-21T00:33:24.530Z,1014.59
2018-04-21T00:34:24.517Z,1014.59
2018-04-21T00:35:24.508Z,1014.59
2018-04-21T00:36:24.502Z,1014.57
2018-04-21T00:37:24.487Z,1014.58
2018-04-21T00:38:24.477Z,1014.57
2018-04-21T00:39:24.473Z,1014.60
2018-04-21T00:40:24.463Z,1014.55
2018-04-21T00:41:24.449Z,1014.56
2018-04-21T00:42:24.434Z,1014.53
2018-04-21T00:43:24.423Z,1014.53
2018-04-21T00:44:24.413Z,1014.51
2018-04-21T00:45:24.415Z,1014.49
2018-04-21T00:46:24.394Z,1014.52
2018-04-21T00:47:24.381Z,1014.50
2018-04-21T00:48:24.377Z,1014.47
2018-04-21T00:49:24.364Z,1014.48
2018-04-21T00:50:24.368Z,1014.48
2018-04-21T00:51:24.342Z,1014.49
2018-04-21T00:52:24.335Z,1014.48
2018-04-21T00:53:24.333Z,1014.52
2018-04-21T00:54:24.311Z,1014.53
2018-04-21T00:55:24.317Z,1014.53
2018-04-21T00:56:24.324Z,1014.53
2018-04-21T00:57:24.278Z,1014.51
2018-04-21T00:58:24.272Z,1014.50
2018-04-21T00:59:24.259Z,1014.53
2018-04-21T01:00:24.247Z,1014.53
2018-04-21T01:01:24.236Z,1014.53
2018-04-21T01:02:24.224Z,1014.56
2018-04-21T01:03:24.222Z,1014.55
2018-04-21T01:04:24.205Z,1014.54
2018-04-21T01:05:24.193Z,1014.57
2018-04-21T01:06:24.183Z,1014.55
2018-04-21T01:07:24.176Z,1014.56
2018-04-21T01:08:24.161Z,1014.56
2018-04-21T01:09:24.158Z,1014.57
2018-04-21T01:10:24.146Z,1014.55
2018-04-21T01:11:24.136Z,1014.56
2018-04-21T01:12:24.119Z,1014.55
2018-04-21T01:13:24.112Z,1014.55
2018-04-21T01:14:24.102Z,1014.58
2018-04-21T01:15:24.088Z,1014.57
2018-04-21T01:16:24.084Z,1014.57
2018-04-21T01:17:24.072Z,1014.59
2018-04-21T01:18:24.060Z,1014.57
2018-04-21T01:19:24.041Z,1014.55
2018-04-21T01:20:24.035Z,1014.56
2018-04-21T01:21:24.022Z,1014.56
2018-04-21T01:22:24.013Z,1014.58
2018-04-21T01:23:24.003Z,1014.56
2018-04-21T01:24:23.994Z,1014.59
2018-04-21T01:25:23.981Z,1014.58
2018-04-21T01:26:23.974Z,1014.57
2018-04-21T01:27:23.966Z,1014.57
2018-04-21T01:28:23.948Z,1014.60
2018-04-21T01:29:23.941Z,1014.61
2018-04-21T01:30:23.926Z,1014.57
2018-04-21T01:31:23.917Z,1014.59
2018-04-21T01:32:23.909Z,1014.58
2018-04-21T01:33:23.896Z,1014.59
2018-04-21T01:34:23.884Z,1014.58
2018-04-21T01:35:23.872Z,1014.60
2018-04-21T01:36:23.864Z,1014.64
2018-04-21T01:37:23.854Z,1014.63
2018-04-21T01:38:23.841Z,1014.64
2018-04-21T01:39:23.835Z,1014.61
2018-04-21T01:40:23.818Z,1014.62
2018-04-21T01:41:23.810Z,1014.60
2018-04-21T01:42:23.799Z,1014.57
2018-04-21T01:43:23.793Z,1014.58
2018-04-21T01:44:23.780Z,1014.55
2018-04-21T01:45:23.764Z,1014.55
2018-04-21T01:46:23.752Z,1014.55
2018-04-21T01:47:23.743Z,1014.54
2018-04-21T01:48:23.734Z,1014.53
2018-04-21T01:49:23.723Z,1014.52
2018-04-21T01:50:23.710Z,1014.51
2018-04-21T01:51:23.707Z,1014.51
2018-04-21T01:52:23.685Z,1014.51
2018-04-21T01:53:23.675Z,1014.48
2018-04-21T01:54:23.665Z,1014.51
2018-04-21T01:55:23.655Z,1014.54
2018-04-21T01:56:23.641Z,1014.51
2018-04-21T01:57:23.630Z,1014.53
2018-04-21T01:58:23.622Z,1014.50
2018-04-21T01:59:23.605Z,1014.52
2018-04-21T02:00:23.598Z,1014.53
2018-04-21T02:01:23.590Z,1014.53
2018-04-21T02:02:23.576Z,1014.49
2018-04-21T02:03:23.569Z,1014.54
2018-04-21T02:04:23.560Z,1014.51
2018-04-21T02:05:23.542Z,1014.51
2018-04-21T02:06:23.629Z,1014.53
2018-04-21T02:07:23.521Z,1014.55
2018-04-21T02:08:23.512Z,1014.54
2018-04-21T02:09:23.497Z,1014.55
2018-04-21T02:10:23.588Z,1014.53
2018-04-21T02:11:23.476Z,1014.54
2018-04-21T02:12:23.468Z,1014.51
2018-04-21T02:13:23.456Z,1014.52
2018-04-21T02:14:23.443Z,1014.51
2018-04-21T02:15:23.427Z,1014.54
2018-04-21T02:16:23.422Z,1014.53
2018-04-21T02:17:23.406Z,1014.50
2018-04-21T02:18:23.447Z,1014.56
2018-04-21T02:19:23.380Z,1014.58
2018-04-21T02:20:23.392Z,1014.52
2018-04-21T02:21:23.367Z,1014.57
2018-04-21T02:22:23.350Z,1014.56
2018-04-21T02:23:23.341Z,1014.57
2018-04-21T02:24:23.326Z,1014.62
2018-04-21T02:25:23.321Z,1014.60
2018-04-21T02:26:23.301Z,1014.60
2018-04-21T02:27:23.291Z,1014.56
2018-04-21T02:28:23.326Z,1014.54
2018-04-21T02:29:23.272Z,1014.57
2018-04-21T02:30:23.259Z,1014.56
2018-04-21T02:31:23.242Z,1014.56
2018-04-21T02:32:23.231Z,1014.56
2018-04-21T02:33:23.223Z,1014.53
2018-04-21T02:34:23.210Z,1014.55
2018-04-21T02:35:23.202Z,1014.51
2018-04-21T02:36:23.253Z,1014.50
2018-04-21T02:37:23.178Z,1014.49
2018-04-21T02:38:23.163Z,1014.47
2018-04-21T02:39:23.153Z,1014.50
2018-04-21T02:40:23.141Z,1014.47
2018-04-21T02:41:23.128Z,1014.43
2018-04-21T02:42:23.117Z,1014.48
2018-04-21T02:44:23.102Z,1014.45
2018-04-21T02:45:23.093Z,1014.46
2018-04-21T02:46:23.075Z,1014.46
2018-04-21T02:47:23.064Z,1014.43
2018-04-21T02:48:23.048Z,1014.44
2018-04-21T02:49:23.043Z,1014.45
2018-04-21T02:50:23.021Z,1014.46
2018-04-21T02:51:23.013Z,1014.46
2018-04-21T02:52:23.003Z,1014.48
2018-04-21T02:53:22.985Z,1014.43
2018-04-21T02:54:22.975Z,1014.48
2018-04-21T02:55:22.967Z,1014.48
2018-04-21T02:56:22.955Z,1014.43
2018-04-21T02:57:22.941Z,1014.45
2018-04-21T02:58:22.928Z,1014.44
2018-04-21T02:59:22.916Z,1014.42
2018-04-21T03:00:22.910Z,1014.43
2018-04-21T03:01:22.892Z,1014.43
2018-04-21T03:02:22.879Z,1014.42
2018-04-21T03:03:22.996Z,1014.45
2018-04-21T03:04:22.859Z,1014.46
2018-04-21T03:05:22.847Z,1014.45
2018-04-21T03:06:22.834Z,1014.42
2018-04-21T03:07:22.820Z,1014.44
2018-04-21T03:08:22.810Z,1014.44
2018-04-21T03:09:22.802Z,1014.43
2018-04-21T03:10:22.788Z,1014.41
2018-04-21T03:11:22.780Z,1014.37
2018-04-21T03:12:22.760Z,1014.44
2018-04-21T03:13:22.751Z,1014.40
2018-04-21T03:14:22.749Z,1014.41
2018-04-21T03:15:22.724Z,1014.40
2018-04-21T03:16:22.719Z,1014.41
2018-04-21T03:17:22.704Z,1014.41
2018-04-21T03:18:22.691Z,1014.43
2018-04-21T03:19:22.753Z,1014.43
2018-04-21T03:20:22.666Z,1014.45
2018-04-21T03:21:22.662Z,1014.42
2018-04-21T03:22:22.650Z,1014.41
2018-04-21T03:23:22.631Z,1014.38
2018-04-21T03:24:22.617Z,1014.40
2018-04-21T03:25:22.610Z,1014.40
2018-04-21T03:26:22.595Z,1014.39
2018-04-21T03:27:22.588Z,1014.36
2018-04-21T03:28:22.572Z,1014.38
2018-04-21T03:29:22.560Z,1014.38
2018-04-21T03:30:22.545Z,1014.34
2018-04-21T03:31:22.546Z,1014.38
2018-04-21T03:32:22.519Z,1014.38
2018-04-21T03:33:22.521Z,1014.39
2018-04-21T03:34:22.499Z,1014.35
2018-04-21T03:35:22.490Z,1014.35
2018-04-21T03:36:22.474Z,1014.40
2018-04-21T03:37:22.464Z,1014.41
2018-04-21T03:38:22.448Z,1014.42
2018-04-21T03:39:22.442Z,1014.44
2018-04-21T03:40:22.431Z,1014.42
2018-04-21T03:41:22.412Z,1014.38
2018-04-21T03:42:22.402Z,1014.38
2018-04-21T03:43:22.393Z,1014.37
2018-04-21T03:44:22.386Z,1014.36
2018-04-21T03:45:22.368Z,1014.36
2018-04-21T03:46:22.353Z,1014.33
2018-04-21T03:47:22.340Z,1014.33
2018-04-21T03:48:22.330Z,1014.34
2018-04-21T03:49:22.313Z,1014.33
2018-04-21T03:50:22.309Z,1014.35
2018-04-21T03:51:22.288Z,1014.31
2018-04-21T03:52:22.277Z,1014.34
2018-04-21T03:53:22.275Z,1014.31
2018-04-21T03:54:22.256Z,1014.32
2018-04-21T03:55:22.240Z,1014.36
2018-04-21T03:56:22.230Z,1014.36
2018-04-21T03:57:22.213Z,1014.34
2018-04-21T03:58:22.212Z,1014.38
2018-04-21T03:59:22.193Z,1014.39
2018-04-21T04:00:22.178Z,1014.40
2018-04-21T04:01:22.169Z,1014.39
2018-04-21T04:02:22.156Z,1014.38
2018-04-21T04:03:22.146Z,1014.38
2018-04-21T04:04:22.129Z,1014.38
2018-04-21T04:05:22.118Z,1014.42
2018-04-21T04:06:22.110Z,1014.41
2018-04-21T04:07:22.098Z,1014.45
2018-04-21T04:08:22.080Z,1014.47
2018-04-21T04:09:22.070Z,1014.47
2018-04-21T04:10:22.059Z,1014.50
2018-04-21T04:11:22.050Z,1014.50
2018-04-21T04:12:22.039Z,1014.53
2018-04-21T04:13:22.017Z,1014.58
2018-04-21T04:14:22.018Z,1014.62
2018-04-21T04:15:22.001Z,1014.64
2018-04-21T04:16:21.984Z,1014.65
2018-04-21T04:17:21.970Z,1014.65
2018-04-21T04:18:21.957Z,1014.66
2018-04-21T04:19:21.945Z,1014.66
2018-04-21T04:20:21.945Z,1014.65
2018-04-21T04:21:21.922Z,1014.68
2018-04-21T04:22:21.909Z,1014.69
2018-04-21T04:23:21.898Z,1014.69
2018-04-21T04:24:21.937Z,1014.68
2018-04-21T04:25:21.869Z,1014.69
2018-04-21T04:26:21.938Z,1014.71
2018-04-21T04:27:21.843Z,1014.69
2018-04-21T04:28:21.883Z,1014.69
2018-04-21T04:29:21.819Z,1014.72
2018-04-21T04:30:21.856Z,1014.72
2018-04-21T04:31:21.793Z,1014.71
2018-04-21T04:32:21.785Z,1014.71
2018-04-21T04:33:21.768Z,1014.71
2018-04-21T04:34:21.810Z,1014.75
2018-04-21T04:35:21.741Z,1014.77
2018-04-21T04:36:21.730Z,1014.77
2018-04-21T04:37:21.720Z,1014.80
2018-04-21T04:38:21.761Z,1014.83
2018-04-21T04:39:21.691Z,1014.81
2018-04-21T04:40:21.680Z,1014.81
2018-04-21T04:41:21.662Z,1014.83
2018-04-21T04:42:21.650Z,1014.88
2018-04-21T04:43:21.636Z,1014.85
2018-04-21T04:44:21.631Z,1014.83
2018-04-21T04:45:21.610Z,1014.88
2018-04-21T04:46:21.599Z,1014.86
2018-04-21T04:47:21.593Z,1014.91
2018-04-21T04:48:21.580Z,1014.89
2018-04-21T04:49:21.559Z,1014.91
2018-04-21T04:50:21.550Z,1014.89
2018-04-21T04:51:21.539Z,1014.89
2018-04-21T04:52:21.535Z,1014.91
2018-04-21T04:53:21.507Z,1014.90
2018-04-21T04:54:21.501Z,1014.90
2018-04-21T04:55:21.489Z,1014.98
2018-04-21T04:56:21.471Z,1014.98
2018-04-21T04:57:21.462Z,1014.99
2018-04-21T04:58:21.463Z,1015.03
2018-04-21T04:59:21.430Z,1015.01
2018-04-21T05:00:21.422Z,1015.04
2018-04-21T05:01:21.412Z,1015.08
2018-04-21T05:02:21.397Z,1015.05
2018-04-21T05:03:21.386Z,1015.08
2018-04-21T05:04:21.371Z,1015.10
2018-04-21T05:05:21.357Z,1015.05
2018-04-21T05:06:21.342Z,1015.03
2018-04-21T05:07:21.332Z,1015.05
2018-04-21T05:08:21.322Z,1015.07
2018-04-21T05:09:21.307Z,1015.06
2018-04-21T05:10:21.291Z,1015.05
2018-04-21T05:11:21.281Z,1015.08
2018-04-21T05:12:21.280Z,1015.07
2018-04-21T05:13:21.250Z,1015.09
2018-04-21T05:14:21.238Z,1015.06
2018-04-21T05:15:21.225Z,1015.08
2018-04-21T05:16:21.226Z,1015.11
2018-04-21T05:17:21.195Z,1015.10
2018-04-21T05:18:21.190Z,1015.10
2018-04-21T05:19:21.172Z,1015.12
2018-04-21T05:20:21.161Z,1015.11
2018-04-21T05:21:21.159Z,1015.14
2018-04-21T05:22:21.137Z,1015.14
2018-04-21T05:23:21.121Z,1015.13
2018-04-21T05:24:21.112Z,1015.19
2018-04-21T05:25:21.102Z,1015.16
2018-04-21T05:26:21.084Z,1015.21
2018-04-21T05:27:21.072Z,1015.23
2018-04-21T05:28:21.060Z,1015.21
2018-04-21T05:29:21.042Z,1015.25
2018-04-21T05:30:21.030Z,1015.26
2018-04-21T05:31:21.014Z,1015.27
2018-04-21T05:32:21.009Z,1015.26
2018-04-21T05:33:20.992Z,1015.29
2018-04-21T05:34:20.977Z,1015.28
2018-04-21T05:35:20.971Z,1015.25
2018-04-21T05:36:20.953Z,1015.29
2018-04-21T05:37:20.944Z,1015.28
2018-04-21T05:38:20.934Z,1015.26
2018-04-21T05:39:20.918Z,1015.32
2018-04-21T05:40:20.902Z,1015.32
2018-04-21T05:41:20.891Z,1015.34
2018-04-21T05:42:20.876Z,1015.38
2018-04-21T05:43:20.862Z,1015.35
2018-04-21T05:44:20.851Z,1015.36
2018-04-21T05:45:20.839Z,1015.37
2018-04-21T05:46:20.829Z,1015.38
2018-04-21T05:47:20.813Z,1015.39
2018-04-21T05:48:20.799Z,1015.41
2018-04-21T05:49:20.798Z,1015.42
2018-04-21T05:50:20.773Z,1015.43
2018-04-21T05:51:20.768Z,1015.45
2018-04-21T05:52:20.752Z,1015.48
2018-04-21T05:53:20.743Z,1015.50
2018-04-21T05:54:20.726Z,1015.50
2018-04-21T05:55:20.713Z,1015.49
2018-04-21T05:56:20.703Z,1015.49
2018-04-21T05:57:20.692Z,1015.47
2018-04-21T05:58:20.673Z,1015.51
2018-04-21T05:59:20.660Z,1015.49
2018-04-21T06:00:20.646Z,1015.50
2018-04-21T06:01:20.637Z,1015.50
2018-04-21T06:02:20.628Z,1015.54
2018-04-21T06:03:20.611Z,1015.51
2018-04-21T06:04:20.607Z,1015.55
2018-04-21T06:05:20.592Z,1015.55
2018-04-21T06:06:20.572Z,1015.55
2018-04-21T06:07:20.564Z,1015.57
2018-04-21T06:08:20.553Z,1015.56
2018-04-21T06:09:20.543Z,1015.58
2018-04-21T06:10:20.521Z,1015.63
2018-04-21T06:11:20.510Z,1015.64
2018-04-21T06:12:20.503Z,1015.65
2018-04-21T06:13:20.494Z,1015.63
2018-04-21T06:14:20.474Z,1015.60
2018-04-21T06:15:20.463Z,1015.64
2018-04-21T06:16:20.458Z,1015.67
2018-04-21T06:17:20.434Z,1015.68
2018-04-21T06:18:20.432Z,1015.67
2018-04-21T06:19:20.415Z,1015.67
2018-04-21T06:20:20.439Z,1015.68
2018-04-21T06:21:20.383Z,1015.68
2018-04-21T06:22:20.375Z,1015.69
2018-04-21T06:23:20.359Z,1015.69
2018-04-21T06:24:20.352Z,1015.67
2018-04-21T06:25:20.332Z,1015.68
2018-04-21T06:26:20.333Z,1015.68
2018-04-21T06:27:20.316Z,1015.67
2018-04-21T06:28:20.303Z,1015.62
2018-04-21T06:29:20.289Z,1015.63
2018-04-21T06:30:20.277Z,1015.64
2018-04-21T06:31:20.268Z,1015.67
2018-04-21T06:32:20.254Z,1015.68
2018-04-21T06:33:20.234Z,1015.64
2018-04-21T06:34:20.224Z,1015.63
2018-04-21T06:35:20.212Z,1015.68
2018-04-21T06:36:20.197Z,1015.73
2018-04-21T06:37:20.185Z,1015.67
2018-04-21T06:38:20.175Z,1015.69
2018-04-21T06:39:20.165Z,1015.70
2018-04-21T06:40:20.153Z,1015.71
2018-04-21T06:41:20.142Z,1015.73
2018-04-21T06:42:20.292Z,1015.75
2018-04-21T06:43:20.124Z,1015.80
2018-04-21T06:44:20.108Z,1015.80
2018-04-21T06:45:20.102Z,1015.81
2018-04-21T06:46:20.084Z,1015.81
2018-04-21T06:47:20.065Z,1015.84
2018-04-21T06:48:20.053Z,1015.84
2018-04-21T06:49:20.039Z,1015.82
2018-04-21T06:50:20.032Z,1015.80
2018-04-21T06:51:20.021Z,1015.85
2018-04-21T06:52:20.157Z,1015.87
2018-04-21T06:53:19.995Z,1015.87
2018-04-21T06:54:20.084Z,1015.88
2018-04-21T06:55:19.982Z,1015.91
2018-04-21T06:56:19.964Z,1015.91
2018-04-21T06:57:19.945Z,1015.89
2018-04-21T06:58:20.056Z,1015.86
2018-04-21T06:59:19.923Z,1015.87
2018-04-21T07:00:19.912Z,1015.93
2018-04-21T07:01:19.903Z,1015.89
2018-04-21T07:02:19.884Z,1015.93
2018-04-21T07:03:19.873Z,1015.88
2018-04-21T07:04:19.863Z,1015.91
2018-04-21T07:05:19.858Z,1015.92
2018-04-21T07:06:19.838Z,1015.92
2018-04-21T07:07:19.838Z,1015.96
2018-04-21T07:08:19.817Z,1015.94
2018-04-21T07:09:19.818Z,1015.98
2018-04-21T07:10:19.793Z,1015.96
2018-04-21T07:11:19.786Z,1015.97
2018-04-21T07:12:19.773Z,1015.95
2018-04-21T07:13:19.759Z,1015.97
2018-04-21T07:14:19.745Z,1015.94
2018-04-21T07:15:19.733Z,1015.98
2018-04-21T07:16:19.720Z,1015.95
2018-04-21T07:17:19.712Z,1015.97
2018-04-21T07:18:19.700Z,1015.93
2018-04-21T07:19:19.730Z,1015.96
2018-04-21T07:20:19.672Z,1015.99
2018-04-21T07:21:19.662Z,1015.97
2018-04-21T07:22:19.653Z,1015.98
2018-04-21T07:23:19.646Z,1015.95
2018-04-21T07:24:19.632Z,1015.97
2018-04-21T07:25:19.623Z,1016.01
2018-04-21T07:26:19.614Z,1016.01
2018-04-21T07:27:19.596Z,1016.00
2018-04-21T07:28:19.582Z,1016.02
2018-04-21T07:29:19.576Z,1016.00
2018-04-21T07:30:19.562Z,1016.05
2018-04-21T07:31:19.553Z,1016.05
2018-04-21T07:32:19.539Z,1016.03
2018-04-21T07:33:19.532Z,1016.06
2018-04-21T07:34:19.528Z,1016.06
2018-04-21T07:35:19.514Z,1016.04
2018-04-21T07:36:19.495Z,1016.06
2018-04-21T07:37:19.486Z,1016.09
2018-04-21T07:38:19.476Z,1016.08
2018-04-21T07:39:19.464Z,1016.10
2018-04-21T07:40:19.454Z,1016.09
2018-04-21T07:41:19.470Z,1016.14
2018-04-21T07:42:19.432Z,1016.16
2018-04-21T07:43:19.415Z,1016.17
2018-04-21T07:44:19.413Z,1016.15
2018-04-21T07:45:19.395Z,1016.15
2018-04-21T07:46:19.398Z,1016.14
2018-04-21T07:47:19.372Z,1016.16
2018-04-21T07:48:19.361Z,1016.17
2018-04-21T07:49:19.355Z,1016.14
2018-04-21T07:50:19.346Z,1016.17
2018-04-21T07:51:19.342Z,1016.18
2018-04-21T07:52:19.323Z,1016.18
2018-04-21T07:53:19.311Z,1016.20
2018-04-21T07:54:19.301Z,1016.21
2018-04-21T07:55:19.292Z,1016.25
2018-04-21T07:56:19.284Z,1016.22
2018-04-21T07:57:19.272Z,1016.21
2018-04-21T07:58:19.265Z,1016.22
2018-04-21T07:59:19.242Z,1016.20
2018-04-21T08:00:19.237Z,1016.24
2018-04-21T08:01:19.222Z,1016.24
2018-04-21T08:02:19.212Z,1016.22
2018-04-21T08:03:19.204Z,1016.24
2018-04-21T08:04:19.191Z,1016.24
2018-04-21T08:05:19.183Z,1016.24
2018-04-21T08:06:19.177Z,1016.23
2018-04-21T08:07:19.163Z,1016.19
2018-04-21T08:08:19.163Z,1016.26
2018-04-21T08:09:19.139Z,1016.27
2018-04-21T08:10:19.134Z,1016.28
2018-04-21T08:11:19.122Z,1016.30
2018-04-21T08:12:19.120Z,1016.28
2018-04-21T08:13:19.114Z,1016.91
2018-04-21T08:14:19.091Z,1017.00
2018-04-21T08:15:19.095Z,1017.01
2018-04-21T08:16:19.071Z,1017.03
2018-04-21T08:17:19.066Z,1017.07
2018-04-21T08:18:19.084Z,1017.06
2018-04-21T08:19:19.051Z,1017.07
2018-04-21T08:20:19.043Z,1017.09
2018-04-21T08:21:19.042Z,1017.13
2018-04-21T08:22:19.033Z,1017.13
2018-04-21T08:23:19.027Z,1017.16
2018-04-21T08:24:19.032Z,1017.17
2018-04-21T08:25:19.020Z,1017.19
2018-04-21T08:26:19.015Z,1017.22
2018-04-21T08:27:19.020Z,1017.20
2018-04-21T08:28:19.011Z,1017.23
2018-04-21T08:29:19.012Z,1017.28
2018-04-21T08:30:19.003Z,1017.26
2018-04-21T08:31:19.017Z,1017.30
2018-04-21T08:32:19.084Z,1017.28
2018-04-21T08:33:18.998Z,1017.22
2018-04-21T08:34:19.004Z,1017.24
2018-04-21T08:35:19.006Z,1017.24
2018-04-21T08:36:19.056Z,1017.30
2018-04-21T08:37:18.996Z,1017.31
2018-04-21T08:38:19.054Z,1017.32
2018-04-21T08:39:18.997Z,1017.38
2018-04-21T08:40:19.047Z,1017.35
2018-04-21T08:41:18.998Z,1017.36
2018-04-21T08:42:19.002Z,1017.37
2018-04-21T08:43:19.006Z,1017.36
2018-04-21T08:44:19.004Z,1017.41
2018-04-21T08:45:19.008Z,1017.39
2018-04-21T08:46:19.005Z,1017.45
2018-04-21T08:47:19.011Z,1017.41
2018-04-21T08:48:19.010Z,1017.39
2018-04-21T08:49:19.066Z,1017.37
2018-04-21T08:50:19.020Z,1017.32
2018-04-21T08:51:19.018Z,1017.28
2018-04-21T08:52:19.018Z,1017.29
2018-04-21T08:53:19.080Z,1017.36
2018-04-21T08:54:19.025Z,1017.42
2018-04-21T08:55:19.026Z,1017.45
2018-04-21T08:56:19.064Z,1017.46
2018-04-21T08:57:19.040Z,1017.43
2018-04-21T08:58:19.037Z,1017.44
2018-04-21T08:59:19.096Z,1017.45
2018-04-21T09:00:19.035Z,1017.39
2018-04-21T09:01:19.042Z,1017.38
2018-04-21T09:02:19.051Z,1017.35
2018-04-21T09:03:19.154Z,1017.38
2018-04-21T09:04:19.046Z,1017.33
2018-04-21T09:05:19.049Z,1017.29
2018-04-21T09:06:19.059Z,1017.28
2018-04-21T09:07:19.054Z,1017.32
2018-04-21T09:08:19.057Z,1017.30
2018-04-21T09:09:19.057Z,1017.37
2018-04-21T09:10:19.086Z,1017.34
2018-04-21T09:11:19.060Z,1017.31
2018-04-21T09:12:19.061Z,1017.32
2018-04-21T09:13:19.063Z,1017.34
2018-04-21T09:14:19.082Z,1017.31
2018-04-21T09:15:19.067Z,1017.31
2018-04-21T09:16:19.069Z,1017.32
2018-04-21T09:17:19.075Z,1017.27
2018-04-21T09:18:19.075Z,1017.27
2018-04-21T09:19:19.072Z,1017.19
2018-04-21T09:20:19.076Z,1017.21
2018-04-21T09:21:19.078Z,1017.20
2018-04-21T09:22:19.074Z,1017.13
2018-04-21T09:23:19.073Z,1017.14
2018-04-21T09:24:19.081Z,1017.15
2018-04-21T09:25:19.073Z,1017.19
2018-04-21T09:26:19.132Z,1017.12
2018-04-21T09:27:19.077Z,1017.11
2018-04-21T09:28:19.132Z,1016.98
2018-04-21T09:29:19.073Z,1016.87
2018-04-21T09:30:19.076Z,1016.89
2018-04-21T09:31:19.076Z,1016.91
2018-04-21T09:32:19.087Z,1016.94
2018-04-21T09:33:19.078Z,1016.91
2018-04-21T09:34:19.081Z,1016.93
2018-04-21T09:35:19.078Z,1016.90
2018-04-21T09:36:19.076Z,1016.93
2018-04-21T09:37:19.072Z,1016.90
2018-04-21T09:38:19.073Z,1016.89
2018-04-21T09:39:19.072Z,1016.85
2018-04-21T09:40:19.074Z,1016.87
2018-04-21T09:41:19.072Z,1016.87
2018-04-21T09:42:19.073Z,1016.88
2018-04-21T09:43:19.073Z,1016.91
2018-04-21T09:44:19.069Z,1016.91
2018-04-21T09:45:19.088Z,1016.90
2018-04-21T09:46:19.066Z,1016.89
2018-04-21T09:47:19.061Z,1016.89
2018-04-21T09:48:19.062Z,1016.87
2018-04-21T09:49:19.164Z,1016.86
2018-04-21T09:50:19.060Z,1016.83
2018-04-21T09:51:19.205Z,1016.81
2018-04-21T09:52:19.058Z,1016.82
2018-04-21T09:53:19.059Z,1016.81
2018-04-21T09:54:19.053Z,1016.79
2018-04-21T09:55:19.055Z,1016.77
2018-04-21T09:56:19.054Z,1016.78
2018-04-21T09:57:19.048Z,1016.78
2018-04-21T09:58:19.051Z,1016.79
2018-04-21T09:59:19.120Z,1016.74
2018-04-21T10:00:19.043Z,1016.71
2018-04-21T10:01:19.037Z,1016.73
2018-04-21T10:02:19.038Z,1016.70
2018-04-21T10:03:19.031Z,1016.67
2018-04-21T10:04:19.030Z,1016.66
2018-04-21T10:05:19.080Z,1016.68
2018-04-21T10:06:19.024Z,1016.67
2018-04-21T10:07:19.023Z,1016.66
2018-04-21T10:08:19.022Z,1016.65
2018-04-21T10:09:19.025Z,1016.62
2018-04-21T10:10:19.025Z,1016.61
2018-04-21T10:11:19.021Z,1016.60
2018-04-21T10:12:19.013Z,1016.63
2018-04-21T10:13:19.012Z,1016.60
2018-04-21T10:14:19.008Z,1016.58
2018-04-21T10:15:19.013Z,1016.60
2018-04-21T10:16:19.003Z,1016.57
2018-04-21T10:17:19.000Z,1016.55
2018-04-21T10:18:19.057Z,1016.55
2018-04-21T10:19:18.996Z,1016.55
2018-04-21T10:20:19.057Z,1016.56
2018-04-21T10:21:18.983Z,1016.53
2018-04-21T10:22:19.079Z,1016.55
2018-04-21T10:23:18.973Z,1016.51
2018-04-21T10:24:19.023Z,1016.52
2018-04-21T10:25:18.965Z,1016.53
2018-04-21T10:26:18.964Z,1016.49
2018-04-21T10:27:18.963Z,1016.49
2018-04-21T10:28:18.959Z,1016.52
2018-04-21T10:29:18.952Z,1016.48
2018-04-21T10:30:18.952Z,1016.45
2018-04-21T10:31:18.942Z,1016.42
2018-04-21T10:32:18.941Z,1016.40
2018-04-21T10:33:18.939Z,1016.37
2018-04-21T10:34:18.932Z,1016.39
2018-04-21T10:35:18.929Z,1016.34
2018-04-21T10:36:18.926Z,1016.32
2018-04-21T10:37:18.929Z,1016.32
2018-04-21T10:38:18.924Z,1016.32
2018-04-21T10:39:18.913Z,1016.30
2018-04-21T10:40:18.914Z,1016.30
2018-04-21T10:41:18.907Z,1016.29
2018-04-21T10:42:18.914Z,1016.32
2018-04-21T10:43:18.897Z,1016.32
2018-04-21T10:44:18.888Z,1016.32
2018-04-21T10:45:18.998Z,1016.30
2018-04-21T10:46:18.884Z,1016.32
2018-04-21T10:47:18.886Z,1016.35
2018-04-21T10:48:18.871Z,1016.35
2018-04-21T10:49:18.869Z,1016.29
2018-04-21T10:50:18.871Z,1016.30
2018-04-21T10:51:18.861Z,1016.27
2018-04-21T10:52:18.854Z,1016.27
2018-04-21T10:53:18.853Z,1016.30
2018-04-21T10:54:18.851Z,1016.30
2018-04-21T10:55:18.842Z,1016.29
2018-04-21T10:56:18.837Z,1016.27
2018-04-21T10:57:18.832Z,1016.26
2018-04-21T10:58:18.837Z,1016.24
2018-04-21T10:59:18.824Z,1016.23
2018-04-21T11:00:18.822Z,1016.23
2018-04-21T11:01:18.818Z,1016.19
2018-04-21T11:02:18.816Z,1016.11
2018-04-21T11:03:18.808Z,1016.18
2018-04-21T11:04:18.807Z,1016.17
2018-04-21T11:05:18.801Z,1016.18
2018-04-21T11:06:18.798Z,1016.15
2018-04-21T11:07:18.786Z,1016.11
2018-04-21T11:08:18.789Z,1016.13
2018-04-21T11:09:18.780Z,1016.14
2018-04-21T11:10:18.783Z,1016.16
2018-04-21T11:11:18.788Z,1016.17
2018-04-21T11:12:18.772Z,1016.16
2018-04-21T11:13:18.765Z,1016.12
2018-04-21T11:14:18.755Z,1016.09
2018-04-21T11:15:18.751Z,1016.07
2018-04-21T11:16:18.747Z,1016.09
2018-04-21T11:17:18.750Z,1016.09
2018-04-21T11:18:18.748Z,1016.04
2018-04-21T11:19:18.745Z,1016.03
2018-04-21T11:20:18.733Z,1016.06
2018-04-21T11:21:18.726Z,1016.06
2018-04-21T11:22:18.719Z,1016.05
2018-04-21T11:23:18.715Z,1016.01
2018-04-21T11:24:18.711Z,1016.01
2018-04-21T11:25:18.707Z,1015.98
2018-04-21T11:26:18.705Z,1016.01
2018-04-21T11:27:18.699Z,1015.98
2018-04-21T11:28:18.693Z,1015.96
2018-04-21T11:29:18.687Z,1015.93
2018-04-21T11:30:18.690Z,1015.91
2018-04-21T11:31:18.691Z,1015.87
2018-04-21T11:32:18.681Z,1015.87
2018-04-21T11:33:18.672Z,1015.88
2018-04-21T11:34:18.666Z,1015.85
2018-04-21T11:35:18.661Z,1015.87
2018-04-21T11:36:18.663Z,1015.90
2018-04-21T11:37:18.705Z,1015.91
2018-04-21T11:38:18.652Z,1015.90
2018-04-21T11:39:18.649Z,1015.91
2018-04-21T11:40:18.641Z,1015.90
2018-04-21T11:41:18.655Z,1015.87
2018-04-21T11:42:18.633Z,1015.90
2018-04-21T11:43:18.646Z,1015.84
2018-04-21T11:44:18.621Z,1015.84
2018-04-21T11:45:18.676Z,1015.84
2018-04-21T11:46:18.614Z,1015.85
2018-04-21T11:47:18.613Z,1015.83
2018-04-21T11:48:18.610Z,1015.86
2018-04-21T11:49:18.645Z,1015.83
2018-04-21T11:50:18.607Z,1015.83
2018-04-21T11:51:18.596Z,1015.79
2018-04-21T11:52:18.596Z,1015.84
2018-04-21T11:53:18.584Z,1015.85
2018-04-21T11:54:18.593Z,1015.78
2018-04-21T11:55:18.583Z,1015.80
2018-04-21T11:56:18.574Z,1015.80
2018-04-21T11:57:18.582Z,1015.75
2018-04-21T11:58:18.562Z,1015.77
2018-04-21T11:59:18.563Z,1015.80
2018-04-21T12:00:18.562Z,1015.76
2018-04-21T12:01:18.555Z,1015.74
2018-04-21T12:02:18.558Z,1015.74
2018-04-21T12:03:18.541Z,1015.74
2018-04-21T12:04:18.546Z,1015.71
2018-04-21T12:05:18.573Z,1015.68
2018-04-21T12:06:18.526Z,1015.68